createdAt,value
2017-11-04T00:01:20.714Z,82.30
2017-11-04T00:03:48.380Z,82.21
2017-11-04T00:06:15.966Z,81.88
2017-11-04T00:08:43.621Z,81.76
2017-11-04T00:11:11.234Z,81.71
2017-11-04T00:13:38.834Z,81.95
2017-11-04T00:16:06.472Z,82.15
2017-11-04T00:18:34.062Z,82.13
2017-11-04T00:21:01.734Z,82.08
2017-11-04T00:23:29.361Z,82.22
2017-11-04T00:25:56.992Z,82.35
2017-11-04T00:28:24.624Z,82.39
2017-11-04T00:30:52.239Z,82.42
2017-11-04T00:33:19.902Z,82.34
2017-11-04T00:35:47.502Z,82.22
2017-11-04T00:38:15.096Z,82.42
2017-11-04T00:40:42.726Z,82.55
2017-11-04T00:43:10.332Z,82.30
2017-11-04T00:45:37.962Z,82.51
2017-11-04T00:48:05.551Z,82.61
2017-11-04T00:50:33.139Z,82.44
2017-11-04T00:53:00.803Z,82.70
2017-11-04T00:55:28.414Z,82.50
2017-11-04T00:57:56.048Z,82.62
2017-11-04T01:00:23.661Z,82.78
2017-11-04T01:02:51.576Z,82.67
2017-11-04T01:05:19.194Z,82.53
2017-11-04T01:07:46.787Z,82.53
2017-11-04T01:10:14.436Z,82.67
2017-11-04T01:12:42.026Z,82.71
2017-11-04T01:15:09.636Z,82.69
2017-11-04T01:17:37.255Z,82.66
2017-11-04T01:20:04.854Z,82.50
2017-11-04T01:22:34.460Z,82.43
2017-11-04T01:25:02.040Z,82.16
2017-11-04T01:27:29.955Z,82.27
2017-11-04T01:29:58.507Z,82.15
2017-11-04T01:32:26.086Z,81.99
2017-11-04T01:34:53.719Z,82.01
2017-11-04T01:37:21.305Z,82.12
2017-11-04T01:39:49.172Z,81.84
2017-11-04T01:42:16.799Z,82.13
2017-11-04T01:44:44.395Z,81.77
2017-11-04T01:47:12.026Z,82.04
2017-11-04T01:49:39.607Z,81.97
2017-11-04T01:52:07.452Z,82.09
2017-11-04T01:54:35.376Z,82.25
2017-11-04T01:57:02.984Z,82.11
2017-11-04T01:59:30.623Z,82.28
2017-11-04T02:01:58.227Z,82.03
2017-11-04T02:04:25.826Z,82.06
2017-11-04T02:06:53.437Z,82.28
2017-11-04T02:09:21.031Z,82.15
2017-11-04T02:11:49.016Z,82.32
2017-11-04T02:14:16.613Z,82.23
2017-11-04T02:16:44.214Z,82.22
2017-11-04T02:19:12.106Z,82.16
2017-11-04T02:21:39.702Z,82.16
2017-11-04T02:24:07.330Z,81.99
2017-11-04T02:26:34.922Z,82.00
2017-11-04T02:29:02.536Z,81.90
2017-11-04T02:31:30.158Z,81.44
2017-11-04T02:33:57.740Z,81.67
2017-11-04T02:36:25.400Z,82.07
2017-11-04T02:38:53.005Z,82.08
2017-11-04T02:41:20.594Z,82.21
2017-11-04T02:43:48.636Z,82.16
2017-11-04T02:46:16.505Z,81.96
2017-11-04T02:48:44.136Z,82.24
2017-11-04T02:51:11.745Z,82.17
2017-11-04T02:53:39.334Z,82.09
2017-11-04T02:56:10.130Z,82.19
2017-11-04T02:58:37.717Z,81.96
2017-11-04T03:01:05.362Z,81.78
2017-11-04T03:03:32.944Z,81.67
2017-11-04T03:06:00.984Z,81.91
2017-11-04T03:08:28.604Z,81.76
2017-11-04T03:10:56.215Z,81.87
2017-11-04T03:13:24.173Z,81.67
2017-11-04T03:15:51.786Z,81.50
2017-11-04T03:18:19.718Z,81.58
2017-11-04T03:20:47.341Z,81.54
2017-11-04T03:23:14.939Z,81.86
2017-11-04T03:25:42.914Z,81.78
2017-11-04T03:28:10.778Z,82.19
2017-11-04T03:30:38.379Z,82.18
2017-11-04T03:33:06.014Z,82.38
2017-11-04T03:35:33.869Z,82.03
2017-11-04T03:38:01.500Z,82.16
2017-11-04T03:40:29.089Z,82.42
2017-11-04T03:42:56.700Z,82.13
2017-11-04T03:45:24.321Z,81.88
2017-11-04T03:47:51.909Z,81.81
2017-11-04T03:50:19.542Z,81.84
2017-11-04T03:52:47.402Z,82.01
2017-11-04T03:55:14.980Z,81.60
2017-11-04T03:57:42.605Z,81.64
2017-11-04T04:00:10.217Z,81.70
2017-11-04T04:02:38.257Z,81.67
2017-11-04T04:05:05.860Z,81.33
2017-11-04T04:07:33.498Z,81.47
2017-11-04T04:10:01.136Z,81.55
2017-11-04T04:12:28.739Z,81.63
2017-11-04T04:14:56.387Z,81.48
2017-11-04T04:17:24.242Z,81.32
2017-11-04T04:19:51.843Z,81.11
2017-11-04T04:22:19.466Z,81.10
2017-11-04T04:24:47.058Z,80.96
2017-11-04T04:27:14.692Z,81.21
2017-11-04T04:29:42.657Z,81.40
2017-11-04T04:32:10.277Z,81.38
2017-11-04T04:34:37.890Z,81.23
2017-11-04T04:37:05.504Z,81.22
2017-11-04T04:39:33.409Z,80.78
2017-11-04T04:42:01.053Z,81.18
2017-11-04T04:44:29.042Z,80.94
2017-11-04T04:46:56.625Z,81.14
2017-11-04T04:49:24.264Z,81.30
2017-11-04T04:51:51.848Z,81.36
2017-11-04T04:54:19.799Z,81.32
2017-11-04T04:56:47.436Z,81.35
2017-11-04T04:59:15.074Z,81.64
2017-11-04T05:01:42.711Z,81.68
2017-11-04T05:04:10.297Z,81.67
2017-11-04T05:06:37.882Z,81.58
2017-11-04T05:09:05.497Z,81.29
2017-11-04T05:11:33.097Z,81.59
2017-11-04T05:14:00.730Z,81.60
2017-11-04T05:16:28.317Z,81.44
2017-11-04T05:18:56.221Z,81.83
2017-11-04T05:21:23.846Z,82.16
2017-11-04T05:23:51.426Z,82.35
2017-11-04T05:26:19.071Z,82.24
2017-11-04T05:28:46.710Z,82.25
2017-11-04T05:31:14.372Z,82.31
2017-11-04T05:33:41.996Z,82.31
2017-11-04T05:36:09.614Z,82.22
2017-11-04T05:38:37.237Z,82.26
2017-11-04T05:41:05.766Z,82.08
2017-11-04T05:43:33.361Z,81.96
2017-11-04T05:46:00.981Z,82.26
2017-11-04T05:48:29.084Z,82.14
2017-11-04T05:50:57.083Z,82.28
2017-11-04T05:53:24.945Z,82.11
2017-11-04T05:55:54.407Z,81.99
2017-11-04T05:58:22.057Z,81.65
2017-11-04T06:00:49.673Z,81.65
2017-11-04T06:03:17.336Z,81.81
2017-11-04T06:05:44.929Z,81.87
2017-11-04T06:08:12.544Z,81.62
2017-11-04T06:10:40.425Z,81.83
2017-11-04T06:13:08.013Z,81.42
2017-11-04T06:15:35.674Z,81.78
2017-11-04T06:18:03.302Z,80.99
2017-11-04T06:20:31.184Z,81.07
2017-11-04T06:22:58.850Z,81.48
2017-11-04T06:25:26.480Z,80.92
2017-11-04T06:27:54.101Z,81.23
2017-11-04T06:30:22.052Z,81.30
2017-11-04T06:32:49.668Z,81.33
2017-11-04T06:35:17.324Z,81.37
2017-11-04T06:37:44.937Z,81.00
2017-11-04T06:40:12.595Z,81.06
2017-11-04T06:42:40.243Z,81.33
2017-11-04T06:45:07.866Z,80.88
2017-11-04T06:47:35.517Z,81.10
2017-11-04T06:50:03.118Z,81.13
2017-11-04T06:52:30.774Z,81.22
2017-11-04T06:54:58.366Z,81.05
2017-11-04T06:57:25.995Z,81.12
2017-11-04T06:59:53.624Z,81.00
2017-11-04T07:02:21.313Z,80.97
2017-11-04T07:04:48.974Z,80.83
2017-11-04T07:07:17.091Z,81.03
2017-11-04T07:09:44.677Z,80.41
2017-11-04T07:12:12.307Z,80.61
2017-11-04T07:14:39.940Z,80.43
2017-11-04T07:17:07.578Z,80.50
2017-11-04T07:19:35.190Z,80.67
2017-11-04T07:22:02.840Z,80.78
2017-11-04T07:24:30.501Z,80.59
2017-11-04T07:26:58.109Z,80.73
2017-11-04T07:29:25.777Z,80.76
2017-11-04T07:31:53.431Z,80.53
2017-11-04T07:34:21.404Z,80.65
2017-11-04T07:36:49.057Z,80.70
2017-11-04T07:39:16.725Z,80.89
2017-11-04T07:41:44.370Z,80.80
2017-11-04T07:44:12.003Z,80.49
2017-11-04T07:46:39.598Z,80.05
2017-11-04T07:49:07.258Z,79.94
2017-11-04T07:51:34.888Z,79.66
2017-11-04T07:54:02.547Z,79.76
2017-11-04T07:56:30.154Z,79.41
2017-11-04T07:58:57.743Z,79.54
2017-11-04T08:01:25.369Z,79.54
2017-11-04T08:03:52.997Z,79.33
2017-11-04T08:06:20.666Z,79.40
2017-11-04T08:08:48.257Z,79.38
2017-11-04T08:11:15.891Z,79.34
2017-11-04T08:13:43.524Z,79.78
2017-11-04T08:16:11.192Z,79.94
2017-11-04T08:18:39.113Z,80.04
2017-11-04T08:21:06.722Z,79.18
2017-11-04T08:23:34.334Z,78.63
2017-11-04T08:26:01.985Z,78.30
2017-11-04T08:28:29.600Z,78.16
2017-11-04T08:30:57.316Z,77.82
2017-11-04T08:33:24.927Z,77.71
2017-11-04T08:35:52.846Z,78.16
2017-11-04T08:38:20.502Z,78.02
2017-11-04T08:40:48.095Z,77.49
2017-11-04T08:43:15.995Z,78.00
2017-11-04T08:45:43.607Z,77.78
2017-11-04T08:48:11.238Z,77.77
2017-11-04T08:50:38.865Z,77.66
2017-11-04T08:53:06.815Z,78.12
2017-11-04T08:55:34.463Z,77.23
2017-11-04T08:58:02.066Z,77.46
2017-11-04T09:00:30.021Z,77.06
2017-11-04T09:02:57.647Z,76.59
2017-11-04T09:05:25.530Z,76.40
2017-11-04T09:07:53.213Z,76.19
2017-11-04T09:10:20.804Z,76.04
2017-11-04T09:12:48.417Z,75.53
2017-11-04T09:15:16.074Z,75.35
2017-11-04T09:17:43.713Z,75.50
2017-11-04T09:20:11.351Z,75.92
2017-11-04T09:22:39.041Z,75.16
2017-11-04T09:25:06.640Z,74.88
2017-11-04T09:27:34.293Z,74.79
2017-11-04T09:30:01.884Z,75.00
2017-11-04T09:32:29.519Z,75.14
2017-11-04T09:34:57.162Z,74.86
2017-11-04T09:37:24.766Z,74.34
2017-11-04T09:39:52.417Z,73.99
2017-11-04T09:42:20.023Z,73.69
2017-11-04T09:44:47.937Z,73.36
2017-11-04T09:47:15.569Z,73.70
2017-11-04T09:49:43.177Z,73.57
2017-11-04T09:52:10.809Z,73.71
2017-11-04T09:54:38.438Z,73.76
2017-11-04T09:57:06.092Z,73.76
2017-11-04T09:59:33.765Z,73.94
2017-11-04T10:02:01.354Z,74.20
2017-11-04T10:04:29.001Z,74.42
2017-11-04T10:06:56.606Z,74.19
2017-11-04T10:09:24.240Z,74.37
2017-11-04T10:11:51.909Z,74.15
2017-11-04T10:14:19.558Z,73.59
2017-11-04T10:16:47.314Z,73.18
2017-11-04T10:19:14.972Z,73.60
2017-11-04T10:21:42.646Z,72.40
2017-11-04T10:24:10.259Z,72.52
2017-11-04T10:26:37.868Z,72.46
2017-11-04T10:29:05.508Z,72.12
2017-11-04T10:31:33.167Z,72.45
2017-11-04T10:34:00.810Z,72.21
2017-11-04T10:36:28.407Z,72.36
2017-11-04T10:38:56.073Z,71.53
2017-11-04T10:41:23.714Z,71.50
2017-11-04T10:43:51.658Z,71.01
2017-11-04T10:46:19.341Z,71.32
2017-11-04T10:48:46.947Z,71.19
2017-11-04T10:51:14.585Z,71.24
2017-11-04T10:53:42.225Z,70.88
2017-11-04T10:56:09.890Z,71.11
2017-11-04T10:58:37.594Z,71.05
2017-11-04T11:01:05.216Z,71.33
2017-11-04T11:03:32.816Z,71.42
2017-11-04T11:06:01.363Z,71.49
2017-11-04T11:08:29.011Z,70.82
2017-11-04T11:10:57.269Z,71.03
2017-11-04T11:13:25.005Z,71.06
2017-11-04T11:15:52.628Z,71.14
2017-11-04T11:18:20.584Z,70.61
2017-11-04T11:20:48.198Z,70.62
2017-11-04T11:23:16.117Z,70.46
2017-11-04T11:25:43.776Z,70.92
2017-11-04T11:28:11.649Z,70.41
2017-11-04T11:30:39.306Z,70.94
2017-11-04T11:33:06.905Z,71.14
2017-11-04T11:35:34.544Z,70.58
2017-11-04T11:38:02.516Z,70.45
2017-11-04T11:40:30.174Z,70.47
2017-11-04T11:42:59.427Z,70.87
2017-11-04T11:45:27.366Z,70.48
2017-11-04T11:47:55.312Z,70.04
2017-11-04T11:50:23.066Z,69.98
2017-11-04T11:52:50.722Z,70.02
2017-11-04T11:55:19.336Z,69.95
2017-11-04T11:57:47.185Z,70.12
2017-11-04T12:00:14.845Z,69.75
2017-11-04T12:02:42.519Z,69.85
2017-11-04T12:05:10.286Z,69.50
2017-11-04T12:07:38.067Z,69.35
2017-11-04T12:10:05.745Z,69.00
2017-11-04T12:12:33.420Z,68.76
2017-11-04T12:15:01.136Z,68.67
2017-11-04T12:17:28.802Z,68.67
2017-11-04T12:19:56.417Z,68.85
2017-11-04T12:22:24.017Z,68.49
2017-11-04T12:24:51.672Z,68.80
2017-11-04T12:27:19.274Z,68.58
2017-11-04T12:29:47.208Z,68.99
2017-11-04T12:32:14.846Z,69.04
2017-11-04T12:34:42.452Z,70.15
2017-11-04T12:37:10.106Z,70.62
2017-11-04T12:39:37.738Z,70.54
2017-11-04T12:42:05.385Z,70.16
2017-11-04T12:44:33.006Z,70.18
2017-11-04T12:47:00.634Z,70.71
2017-11-04T12:49:28.292Z,70.40
2017-11-04T12:51:56.370Z,70.16
2017-11-04T12:54:24.025Z,70.14
2017-11-04T12:56:51.687Z,70.33
2017-11-04T12:59:19.305Z,70.36
2017-11-04T13:01:47.742Z,70.24
2017-11-04T13:04:15.421Z,69.83
2017-11-04T13:06:43.077Z,70.24
2017-11-04T13:09:10.706Z,70.47
2017-11-04T13:11:38.370Z,70.63
2017-11-04T13:14:06.012Z,70.56
2017-11-04T13:16:33.621Z,70.76
2017-11-04T13:19:01.289Z,70.53
2017-11-04T13:21:28.912Z,70.70
2017-11-04T13:23:56.576Z,70.37
2017-11-04T13:26:24.230Z,70.74
2017-11-04T13:28:51.886Z,70.68
2017-11-04T13:31:19.556Z,70.82
2017-11-04T13:33:47.178Z,70.51
2017-11-04T13:36:14.789Z,70.95
2017-11-04T13:38:42.452Z,71.01
2017-11-04T13:41:10.359Z,70.59
2017-11-04T13:43:38.029Z,70.06
2017-11-04T13:48:39.498Z,70.34
2017-11-04T13:51:07.126Z,70.42
2017-11-04T13:53:34.749Z,71.03
2017-11-04T13:56:02.395Z,71.22
2017-11-04T13:58:30.005Z,71.46
2017-11-04T14:00:57.682Z,71.61
2017-11-04T14:03:25.364Z,71.60
2017-11-04T14:05:52.976Z,71.51
2017-11-04T14:08:20.896Z,71.38
2017-11-04T14:10:48.565Z,71.65
2017-11-04T14:13:16.239Z,71.90
2017-11-04T14:15:43.910Z,72.18
2017-11-04T14:18:11.572Z,72.11
2017-11-04T14:20:39.528Z,72.17
2017-11-04T14:23:07.149Z,72.57
2017-11-04T14:25:34.863Z,72.36
2017-11-04T14:28:02.531Z,72.50
2017-11-04T14:30:30.135Z,72.73
2017-11-04T14:32:57.773Z,72.96
2017-11-04T14:35:25.437Z,72.90
2017-11-04T14:37:53.469Z,73.25
2017-11-04T14:40:21.131Z,73.59
2017-11-04T14:42:49.114Z,73.75
2017-11-04T14:45:16.775Z,74.22
2017-11-04T14:47:44.430Z,74.44
2017-11-04T14:50:12.092Z,74.45
2017-11-04T14:52:39.818Z,74.71
2017-11-04T14:55:07.441Z,74.96
2017-11-04T14:57:35.386Z,75.03
2017-11-04T15:00:03.062Z,74.85
2017-11-04T15:02:30.793Z,74.97
2017-11-04T15:04:58.414Z,75.04
2017-11-04T15:07:26.026Z,75.06
2017-11-04T15:09:53.676Z,75.14
2017-11-04T15:12:21.286Z,75.09
2017-11-04T15:14:48.930Z,75.34
2017-11-04T15:17:16.588Z,75.42
2017-11-04T15:19:44.195Z,75.63
2017-11-04T15:22:11.851Z,75.51
2017-11-04T15:24:39.454Z,75.78
2017-11-04T15:27:07.097Z,75.96
2017-11-04T15:29:35.108Z,76.45
2017-11-04T15:32:02.802Z,76.34
2017-11-04T15:34:30.471Z,76.57
2017-11-04T15:36:58.124Z,76.47
2017-11-04T15:39:26.084Z,76.33
2017-11-04T15:41:53.756Z,76.33
2017-11-04T15:44:21.421Z,76.19
2017-11-04T15:46:49.149Z,76.69
2017-11-04T15:49:16.769Z,76.56
2017-11-04T15:51:48.389Z,76.42
2017-11-04T15:54:15.998Z,76.55
2017-11-04T15:56:43.912Z,76.12
2017-11-04T15:59:11.738Z,76.07
2017-11-04T16:01:39.345Z,75.87
2017-11-04T16:04:06.996Z,76.12
2017-11-04T16:06:34.615Z,75.99
2017-11-04T16:09:02.739Z,76.15
2017-11-04T16:11:30.401Z,76.45
2017-11-04T16:13:58.012Z,76.42
2017-11-04T16:16:25.673Z,76.40
2017-11-04T16:18:53.288Z,76.40
2017-11-04T16:21:20.890Z,76.69
2017-11-04T16:23:48.562Z,76.79
2017-11-04T16:26:16.187Z,76.84
2017-11-04T16:28:43.859Z,76.71
2017-11-04T16:31:11.496Z,76.51
2017-11-04T16:33:39.101Z,76.56
2017-11-04T16:36:06.756Z,76.38
2017-11-04T16:38:34.373Z,76.68
2017-11-04T16:41:02.014Z,76.34
2017-11-04T16:43:29.641Z,76.46
2017-11-04T16:45:57.573Z,76.69
2017-11-04T16:48:25.549Z,76.45
2017-11-04T16:50:53.154Z,76.38
2017-11-04T16:53:20.822Z,76.43
2017-11-04T16:55:48.430Z,76.67
2017-11-04T16:58:16.899Z,76.96
2017-11-04T17:00:44.556Z,76.64
2017-11-04T17:03:12.209Z,76.90
2017-11-04T17:05:39.887Z,76.92
2017-11-04T17:08:07.685Z,76.81
2017-11-04T17:10:35.551Z,76.72
2017-11-04T17:13:03.234Z,76.96
2017-11-04T17:15:30.991Z,76.88
2017-11-04T17:17:58.645Z,77.14
2017-11-04T17:20:26.302Z,77.04
2017-11-04T17:22:54.031Z,77.08
2017-11-04T17:25:21.652Z,77.13
2017-11-04T17:27:49.265Z,77.33
2017-11-04T17:30:17.003Z,76.98
2017-11-04T17:32:44.676Z,76.85
2017-11-04T17:35:12.581Z,76.80
2017-11-04T17:37:40.245Z,77.17
2017-11-04T17:40:07.871Z,77.12
2017-11-04T17:42:35.533Z,77.24
2017-11-04T17:45:03.166Z,77.28
2017-11-04T17:47:30.894Z,77.35
2017-11-04T17:49:58.529Z,77.25
2017-11-04T17:52:26.194Z,76.95
2017-11-04T17:54:53.871Z,76.82
2017-11-04T17:57:21.523Z,76.72
2017-11-04T17:59:49.143Z,76.94
2017-11-04T18:02:16.805Z,76.89
2017-11-04T18:04:44.428Z,76.55
2017-11-04T18:07:12.673Z,76.79
2017-11-04T18:09:40.331Z,76.77
2017-11-04T18:12:07.937Z,76.80
2017-11-04T18:14:35.576Z,76.60
2017-11-04T18:17:03.230Z,76.56
2017-11-04T18:19:30.875Z,76.42
2017-11-04T18:21:58.812Z,76.62
2017-11-04T18:24:26.409Z,76.95
2017-11-04T18:26:54.072Z,76.91
2017-11-04T18:29:21.688Z,77.14
2017-11-04T18:31:49.485Z,77.03
2017-11-04T18:34:17.112Z,76.70
2017-11-04T18:36:44.719Z,77.00
2017-11-04T18:39:12.358Z,76.69
2017-11-04T18:41:39.968Z,76.85
2017-11-04T18:44:07.961Z,76.58
2017-11-04T18:46:35.588Z,77.01
2017-11-04T18:49:03.210Z,76.77
2017-11-04T18:51:30.854Z,76.58
2017-11-04T18:53:59.001Z,76.80
2017-11-04T18:56:26.648Z,77.03
2017-11-04T18:58:54.272Z,77.24
2017-11-04T19:01:21.957Z,77.29
2017-11-04T19:03:49.577Z,77.29
2017-11-04T19:06:17.205Z,77.10
2017-11-04T19:08:44.808Z,77.00
2017-11-04T19:11:12.766Z,77.22
2017-11-04T19:13:40.361Z,77.51
2017-11-04T19:16:07.997Z,77.55
2017-11-04T19:18:35.654Z,77.69
2017-11-04T19:21:03.290Z,77.60
2017-11-04T19:23:30.918Z,77.65
2017-11-04T19:25:58.552Z,77.55
2017-11-04T19:28:26.148Z,77.70
2017-11-04T19:30:53.803Z,77.53
2017-11-04T19:33:21.532Z,77.32
2017-11-04T19:35:49.149Z,77.44
2017-11-04T19:38:16.789Z,77.54
2017-11-04T19:40:44.436Z,77.38
2017-11-04T19:43:12.106Z,77.52
2017-11-04T19:45:39.713Z,77.36
2017-11-04T19:48:07.343Z,77.54
2017-11-04T19:50:35.012Z,77.53
2017-11-04T19:53:02.628Z,77.54
2017-11-04T19:55:30.297Z,77.72
2017-11-04T19:57:57.889Z,77.62
2017-11-04T20:00:25.484Z,77.49
2017-11-04T20:02:53.150Z,77.59
2017-11-04T20:05:21.049Z,77.73
2017-11-04T20:07:48.700Z,77.55
2017-11-04T20:10:16.310Z,77.61
2017-11-04T20:12:43.940Z,77.97
2017-11-04T20:15:11.591Z,78.18
2017-11-04T20:17:39.209Z,77.79
2017-11-04T20:20:07.445Z,78.09
2017-11-04T20:22:35.056Z,78.30
2017-11-04T20:25:02.676Z,78.37
2017-11-04T20:27:30.332Z,78.49
2017-11-04T20:29:58.004Z,78.79
2017-11-04T20:32:25.652Z,78.94
2017-11-04T20:34:53.245Z,79.14
2017-11-04T20:37:20.881Z,79.18
2017-11-04T20:39:48.531Z,79.39
2017-11-04T20:42:16.150Z,79.50
2017-11-04T20:44:44.068Z,79.64
2017-11-04T20:47:12.462Z,79.64
2017-11-04T20:49:40.423Z,79.63
2017-11-04T20:52:08.103Z,79.39
2017-11-04T20:54:36.060Z,79.56
2017-11-04T20:57:03.715Z,79.90
2017-11-04T20:59:32.531Z,80.23
2017-11-04T21:02:00.153Z,80.49
2017-11-04T21:04:27.786Z,80.60
2017-11-04T21:06:56.123Z,80.64
2017-11-04T21:09:23.814Z,80.67
2017-11-04T21:11:51.434Z,80.70
2017-11-04T21:14:19.037Z,80.78
2017-11-04T21:16:46.696Z,80.81
2017-11-04T21:19:14.321Z,80.86
2017-11-04T21:21:41.993Z,80.86
2017-11-04T21:24:09.633Z,80.94
2017-11-04T21:26:37.274Z,80.99
2017-11-04T21:29:04.970Z,80.98
2017-11-04T21:31:32.622Z,81.03
2017-11-04T21:34:00.253Z,81.08
2017-11-04T21:36:27.849Z,81.27
2017-11-04T21:38:55.705Z,81.26
2017-11-04T21:41:23.391Z,81.10
2017-11-04T21:43:51.257Z,81.11
2017-11-04T21:46:18.903Z,81.39
2017-11-04T21:48:46.530Z,81.43
2017-11-04T21:51:14.157Z,81.46
2017-11-04T21:53:42.115Z,81.37
2017-11-04T21:56:09.750Z,81.29
2017-11-04T21:58:37.817Z,81.29
2017-11-04T22:01:06.706Z,81.50
2017-11-04T22:03:34.304Z,81.51
2017-11-04T22:06:01.985Z,81.57
2017-11-04T22:08:29.579Z,81.63
2017-11-04T22:10:57.241Z,81.71
2017-11-04T22:13:24.836Z,81.78
2017-11-04T22:15:52.482Z,81.67
2017-11-04T22:18:20.139Z,81.87
2017-11-04T22:20:47.828Z,82.08
2017-11-04T22:23:15.499Z,81.88
2017-11-04T22:25:43.123Z,82.04
2017-11-04T22:28:10.816Z,82.28
2017-11-04T22:30:38.537Z,82.42
2017-11-04T22:33:06.149Z,82.20
2017-11-04T22:35:33.802Z,82.24
2017-11-04T22:38:01.448Z,82.21
2017-11-04T22:40:29.085Z,82.27
2017-11-04T22:42:56.746Z,82.19
2017-11-04T22:45:25.660Z,82.33
2017-11-04T22:47:53.335Z,82.26
2017-11-04T22:50:20.978Z,82.26
2017-11-04T22:52:48.588Z,82.45
2017-11-04T22:55:16.213Z,82.33
2017-11-04T22:57:43.863Z,82.46
2017-11-04T23:00:11.522Z,82.45
2017-11-04T23:02:39.153Z,82.33
2017-11-04T23:05:06.750Z,82.25
2017-11-04T23:07:34.382Z,82.38
2017-11-04T23:10:01.987Z,82.26
2017-11-04T23:12:29.629Z,82.29
2017-11-04T23:14:57.245Z,82.32
2017-11-04T23:17:24.888Z,82.39
2017-11-04T23:19:52.517Z,82.34
2017-11-04T23:22:20.124Z,82.28
2017-11-04T23:24:47.748Z,82.16
2017-11-04T23:27:15.332Z,82.20
2017-11-04T23:29:43.229Z,82.24
2017-11-04T23:32:10.861Z,82.14
2017-11-04T23:34:38.464Z,82.26
2017-11-04T23:37:06.105Z,82.18
2017-11-04T23:39:33.702Z,82.15
2017-11-04T23:42:01.309Z,82.08
2017-11-04T23:44:28.929Z,82.14
2017-11-04T23:46:56.525Z,81.98
2017-11-04T23:49:24.172Z,81.93
2017-11-04T23:51:51.775Z,81.85
2017-11-04T23:54:19.378Z,81.71
2017-11-04T23:56:47.016Z,81.62
2017-11-04T23:59:14.631Z,81.96
